KNFL/NFL METAR and TAF weather

Enter ICAO airport designator
Station Type Date Time Source
KNFL METAR 2021/09/25 03:56 UTC NOAA

KNFL 250356Z VRB05KT 10SM CLR 16/M03 A3006 RMK AO2 SLP147 T01611028


Station Type Date Time Source
KNFL Decoded METAR 2021/09/25 03:56 UTC NOAA

FALLON NAVAL AIR STATION, NV, United States (KNFL) 39-26N 118-41W 1199M
Sep 24, 2021 - 11:56 PM EDT / 2021.09.25 0356 UTC
Wind: Variable at 6 MPH (5 KT):0
Visibility: 10 mile(s):0
Sky conditions: clear
Temperature: 61.0 F (16.1 C)
Dew Point: 27.0 F (-2.8 C)
Relative Humidity: 27%
Pressure (altimeter): 30.06 in. Hg (1017 hPa)
ob: KNFL 250356Z VRB05KT 10SM CLR 16/M03 A3006 RMK AO2 SLP147 T01611028
cycle: 4

Station Type Date Time Source
KNFL TAF 2021/09/24 23:15 UTC NOAA

TAF KNFL 2423/2523 VRB06KT 9999 SKC QNH2998INS
TEMPO 2500/2505 03010KT
FM250700 VRB06KT 9999 SKC QNH3001INS LAST NO
AMDS AFT 2507 NEXT 2707 T08/2514Z T30/2523Z FS30123

Example: see airport list